sensor_id;sensor_type;location;lat;lon;timestamp;P1;durP1;ratioP1;P2;durP2;ratioP2
27744;SDS011;61387;48.112;8.616;2024-03-23T00:53:53;4.93;;;2.87;;
27744;SDS011;61387;48.112;8.616;2024-03-23T00:56:19;4.40;;;2.80;;
27744;SDS011;61387;48.112;8.616;2024-03-23T00:58:45;4.50;;;3.00;;
27744;SDS011;61387;48.112;8.616;2024-03-23T01:01:10;6.33;;;2.60;;
27744;SDS011;61387;48.112;8.616;2024-03-23T01:03:36;3.90;;;2.63;;
27744;SDS011;61387;48.112;8.616;2024-03-23T01:06:02;5.60;;;3.53;;
27744;SDS011;61387;48.112;8.616;2024-03-23T01:08:28;5.60;;;3.27;;
27744;SDS011;61387;48.112;8.616;2024-03-23T01:10:57;6.10;;;3.10;;
27744;SDS011;61387;48.112;8.616;2024-03-23T01:13:24;4.80;;;2.87;;
27744;SDS011;61387;48.112;8.616;2024-03-23T01:15:50;5.10;;;2.93;;
27744;SDS011;61387;48.112;8.616;2024-03-23T01:18:17;7.17;;;3.40;;
27744;SDS011;61387;48.112;8.616;2024-03-23T01:20:43;5.13;;;3.30;;
27744;SDS011;61387;48.112;8.616;2024-03-23T01:23:09;6.97;;;3.20;;
27744;SDS011;61387;48.112;8.616;2024-03-23T01:25:35;4.87;;;3.03;;
27744;SDS011;61387;48.112;8.616;2024-03-23T01:28:01;4.77;;;3.10;;
27744;SDS011;61387;48.112;8.616;2024-03-23T01:30:26;5.50;;;3.07;;
27744;SDS011;61387;48.112;8.616;2024-03-23T01:32:52;5.03;;;3.10;;
27744;SDS011;61387;48.112;8.616;2024-03-23T01:35:18;5.50;;;3.23;;
27744;SDS011;61387;48.112;8.616;2024-03-23T01:37:44;7.43;;;3.40;;
27744;SDS011;61387;48.112;8.616;2024-03-23T01:40:10;4.57;;;3.00;;
27744;SDS011;61387;48.112;8.616;2024-03-23T01:42:38;4.40;;;2.80;;
27744;SDS011;61387;48.112;8.616;2024-03-23T01:45:05;4.70;;;2.87;;
27744;SDS011;61387;48.112;8.616;2024-03-23T01:47:33;5.13;;;2.83;;
27744;SDS011;61387;48.112;8.616;2024-03-23T01:49:59;4.60;;;2.50;;
27744;SDS011;61387;48.112;8.616;2024-03-23T01:52:25;3.53;;;2.47;;
27744;SDS011;61387;48.112;8.616;2024-03-23T01:54:55;4.73;;;2.80;;
27744;SDS011;61387;48.112;8.616;2024-03-23T01:57:21;4.90;;;3.00;;
27744;SDS011;61387;48.112;8.616;2024-03-23T01:59:47;5.33;;;2.50;;
27744;SDS011;61387;48.112;8.616;2024-03-23T02:02:13;6.43;;;3.07;;
27744;SDS011;61387;48.112;8.616;2024-03-23T02:04:39;8.17;;;3.00;;
27744;SDS011;61387;48.112;8.616;2024-03-23T02:07:08;10.60;;;5.53;;
27744;SDS011;61387;48.112;8.616;2024-03-23T02:09:34;5.40;;;2.93;;
27744;SDS011;61387;48.112;8.616;2024-03-23T02:12:01;3.53;;;2.33;;
27744;SDS011;61387;48.112;8.616;2024-03-23T02:14:27;5.60;;;2.90;;
27744;SDS011;61387;48.112;8.616;2024-03-23T02:16:53;5.70;;;3.00;;
27744;SDS011;61387;48.112;8.616;2024-03-23T02:19:19;5.87;;;2.97;;
27744;SDS011;61387;48.112;8.616;2024-03-23T02:21:45;5.37;;;2.80;;
27744;SDS011;61387;48.112;8.616;2024-03-23T02:24:12;6.40;;;3.00;;
27744;SDS011;61387;48.112;8.616;2024-03-23T02:26:38;5.33;;;2.83;;
27744;SDS011;61387;48.112;8.616;2024-03-23T02:29:03;4.80;;;2.37;;
27744;SDS011;61387;48.112;8.616;2024-03-23T02:31:29;5.40;;;2.93;;
27744;SDS011;61387;48.112;8.616;2024-03-23T02:33:55;4.77;;;2.87;;
27744;SDS011;61387;48.112;8.616;2024-03-23T02:36:21;3.97;;;2.40;;
27744;SDS011;61387;48.112;8.616;2024-03-23T02:38:47;4.03;;;2.53;;
27744;SDS011;61387;48.112;8.616;2024-03-23T02:41:13;5.03;;;3.00;;
27744;SDS011;61387;48.112;8.616;2024-03-23T02:43:39;7.23;;;2.87;;
27744;SDS011;61387;48.112;8.616;2024-03-23T02:46:05;6.87;;;2.77;;
27744;SDS011;61387;48.112;8.616;2024-03-23T02:48:31;6.43;;;2.80;;
27744;SDS011;61387;48.112;8.616;2024-03-23T02:50:58;5.37;;;2.93;;
27744;SDS011;61387;48.112;8.616;2024-03-23T02:53:24;5.83;;;3.50;;
27744;SDS011;61387;48.112;8.616;2024-03-23T02:55:50;5.23;;;2.97;;
27744;SDS011;61387;48.112;8.616;2024-03-23T02:58:16;6.93;;;3.20;;
27744;SDS011;61387;48.112;8.616;2024-03-23T03:00:41;5.77;;;3.47;;
27744;SDS011;61387;48.112;8.616;2024-03-23T03:03:07;6.17;;;3.53;;
27744;SDS011;61387;48.112;8.616;2024-03-23T03:05:32;6.07;;;2.90;;
27744;SDS011;61387;48.112;8.616;2024-03-23T03:07:58;5.40;;;2.97;;
27744;SDS011;61387;48.112;8.616;2024-03-23T03:10:24;5.77;;;3.27;;
27744;SDS011;61387;48.112;8.616;2024-03-23T03:12:50;6.07;;;3.20;;
27744;SDS011;61387;48.112;8.616;2024-03-23T03:15:16;5.60;;;3.30;;
27744;SDS011;61387;48.112;8.616;2024-03-23T03:17:42;4.77;;;2.93;;
27744;SDS011;61387;48.112;8.616;2024-03-23T03:20:08;4.47;;;2.97;;
27744;SDS011;61387;48.112;8.616;2024-03-23T03:22:38;6.57;;;3.10;;
27744;SDS011;61387;48.112;8.616;2024-03-23T03:25:04;6.43;;;3.17;;
27744;SDS011;61387;48.112;8.616;2024-03-23T03:27:31;7.10;;;2.97;;
27744;SDS011;61387;48.112;8.616;2024-03-23T03:29:57;7.43;;;3.60;;
27744;SDS011;61387;48.112;8.616;2024-03-23T03:32:25;6.20;;;2.90;;
27744;SDS011;61387;48.112;8.616;2024-03-23T03:34:51;6.43;;;2.60;;
27744;SDS011;61387;48.112;8.616;2024-03-23T03:37:17;3.90;;;2.40;;
27744;SDS011;61387;48.112;8.616;2024-03-23T03:39:43;5.60;;;2.87;;
27744;SDS011;61387;48.112;8.616;2024-03-23T03:42:09;5.13;;;2.70;;
27744;SDS011;61387;48.112;8.616;2024-03-23T03:44:35;5.70;;;2.60;;
27744;SDS011;61387;48.112;8.616;2024-03-23T03:47:01;4.17;;;2.70;;
27744;SDS011;61387;48.112;8.616;2024-03-23T03:49:27;6.07;;;2.20;;
27744;SDS011;61387;48.112;8.616;2024-03-23T03:51:53;4.40;;;2.60;;
27744;SDS011;61387;48.112;8.616;2024-03-23T03:54:20;3.60;;;2.37;;
27744;SDS011;61387;48.112;8.616;2024-03-23T03:56:46;4.27;;;2.40;;
27744;SDS011;61387;48.112;8.616;2024-03-23T03:59:12;4.30;;;2.67;;
27744;SDS011;61387;48.112;8.616;2024-03-23T04:01:39;4.43;;;2.60;;
27744;SDS011;61387;48.112;8.616;2024-03-23T04:04:05;6.50;;;2.70;;
27744;SDS011;61387;48.112;8.616;2024-03-23T04:06:31;10.30;;;2.80;;
27744;SDS011;61387;48.112;8.616;2024-03-23T04:08:58;4.90;;;2.53;;
27744;SDS011;61387;48.112;8.616;2024-03-23T04:11:24;6.17;;;2.97;;
27744;SDS011;61387;48.112;8.616;2024-03-23T04:13:50;3.50;;;2.40;;
27744;SDS011;61387;48.112;8.616;2024-03-23T04:16:29;7.00;;;3.47;;
27744;SDS011;61387;48.112;8.616;2024-03-23T04:18:59;5.57;;;3.40;;
27744;SDS011;61387;48.112;8.616;2024-03-23T04:21:24;6.97;;;3.53;;
27744;SDS011;61387;48.112;8.616;2024-03-23T04:23:50;5.87;;;2.90;;
27744;SDS011;61387;48.112;8.616;2024-03-23T04:26:16;4.23;;;2.90;;
27744;SDS011;61387;48.112;8.616;2024-03-23T04:28:41;6.57;;;3.03;;
27744;SDS011;61387;48.112;8.616;2024-03-23T04:31:07;5.93;;;3.13;;
27744;SDS011;61387;48.112;8.616;2024-03-23T04:33:33;6.77;;;3.07;;
27744;SDS011;61387;48.112;8.616;2024-03-23T04:35:59;7.00;;;3.03;;
27744;SDS011;61387;48.112;8.616;2024-03-23T04:38:25;5.40;;;2.90;;
27744;SDS011;61387;48.112;8.616;2024-03-23T04:40:54;4.25;;;2.55;;
27744;SDS011;61387;48.112;8.616;2024-03-23T04:43:21;7.87;;;3.10;;
27744;SDS011;61387;48.112;8.616;2024-03-23T04:45:47;4.30;;;2.70;;
27744;SDS011;61387;48.112;8.616;2024-03-23T04:48:13;5.60;;;2.83;;
27744;SDS011;61387;48.112;8.616;2024-03-23T04:50:38;8.43;;;3.10;;
27744;SDS011;61387;48.112;8.616;2024-03-23T04:53:05;5.33;;;3.30;;
27744;SDS011;61387;48.112;8.616;2024-03-23T04:55:31;6.97;;;3.30;;
27744;SDS011;61387;48.112;8.616;2024-03-23T04:57:57;5.53;;;3.17;;
27744;SDS011;61387;48.112;8.616;2024-03-23T05:00:22;5.80;;;3.03;;
27744;SDS011;61387;48.112;8.616;2024-03-23T05:02:48;11.37;;;4.33;;
27744;SDS011;61387;48.112;8.616;2024-03-23T05:05:14;6.57;;;3.20;;
27744;SDS011;61387;48.112;8.616;2024-03-23T05:07:40;6.63;;;3.20;;
27744;SDS011;61387;48.112;8.616;2024-03-23T05:10:06;4.77;;;3.03;;
27744;SDS011;61387;48.112;8.616;2024-03-23T05:12:35;5.00;;;3.30;;
27744;SDS011;61387;48.112;8.616;2024-03-23T05:15:01;4.77;;;3.27;;
27744;SDS011;61387;48.112;8.616;2024-03-23T05:17:28;6.60;;;3.37;;
27744;SDS011;61387;48.112;8.616;2024-03-23T05:19:53;6.53;;;3.43;;
27744;SDS011;61387;48.112;8.616;2024-03-23T05:22:19;8.17;;;3.40;;
27744;SDS011;61387;48.112;8.616;2024-03-23T05:24:45;6.23;;;3.27;;
27744;SDS011;61387;48.112;8.616;2024-03-23T05:27:11;7.43;;;3.60;;
27744;SDS011;61387;48.112;8.616;2024-03-23T05:29:37;6.23;;;3.17;;
27744;SDS011;61387;48.112;8.616;2024-03-23T05:32:03;7.50;;;3.47;;
27744;SDS011;61387;48.112;8.616;2024-03-23T05:34:29;6.50;;;3.90;;
27744;SDS011;61387;48.112;8.616;2024-03-23T05:36:55;8.50;;;4.50;;
27744;SDS011;61387;48.112;8.616;2024-03-23T05:39:21;7.50;;;4.27;;
27744;SDS011;61387;48.112;8.616;2024-03-23T05:41:47;6.10;;;3.30;;
27744;SDS011;61387;48.112;8.616;2024-03-23T05:44:13;7.13;;;3.43;;
27744;SDS011;61387;48.112;8.616;2024-03-23T05:46:40;4.67;;;2.40;;
27744;SDS011;61387;48.112;8.616;2024-03-23T05:49:06;4.53;;;2.50;;
27744;SDS011;61387;48.112;8.616;2024-03-23T05:51:31;4.17;;;2.17;;
27744;SDS011;61387;48.112;8.616;2024-03-23T05:53:57;5.43;;;2.80;;
27744;SDS011;61387;48.112;8.616;2024-03-23T05:56:23;5.37;;;3.47;;
27744;SDS011;61387;48.112;8.616;2024-03-23T05:58:48;7.40;;;3.57;;
27744;SDS011;61387;48.112;8.616;2024-03-23T06:01:14;6.00;;;3.53;;
27744;SDS011;61387;48.112;8.616;2024-03-23T06:03:40;6.07;;;3.73;;
27744;SDS011;61387;48.112;8.616;2024-03-23T06:06:05;8.23;;;5.00;;
27744;SDS011;61387;48.112;8.616;2024-03-23T06:08:36;7.23;;;4.80;;
27744;SDS011;61387;48.112;8.616;2024-03-23T06:11:03;7.70;;;4.80;;
27744;SDS011;61387;48.112;8.616;2024-03-23T06:13:31;8.17;;;5.63;;
27744;SDS011;61387;48.112;8.616;2024-03-23T06:15:57;10.30;;;6.13;;
27744;SDS011;61387;48.112;8.616;2024-03-23T06:18:23;8.87;;;5.80;;
27744;SDS011;61387;48.112;8.616;2024-03-23T06:20:49;9.37;;;6.17;;
27744;SDS011;61387;48.112;8.616;2024-03-23T06:23:15;10.13;;;6.10;;
27744;SDS011;61387;48.112;8.616;2024-03-23T06:25:42;10.33;;;6.03;;
27744;SDS011;61387;48.112;8.616;2024-03-23T06:28:08;9.87;;;6.20;;
27744;SDS011;61387;48.112;8.616;2024-03-23T06:30:33;10.57;;;6.28;;
27744;SDS011;61387;48.112;8.616;2024-03-23T06:32:59;9.67;;;6.63;;
27744;SDS011;61387;48.112;8.616;2024-03-23T06:35:25;10.73;;;6.63;;
27744;SDS011;61387;48.112;8.616;2024-03-23T06:37:50;11.73;;;7.10;;
27744;SDS011;61387;48.112;8.616;2024-03-23T06:40:16;11.40;;;7.10;;
27744;SDS011;61387;48.112;8.616;2024-03-23T06:42:42;11.93;;;7.93;;
27744;SDS011;61387;48.112;8.616;2024-03-23T06:45:08;12.33;;;7.50;;
27744;SDS011;61387;48.112;8.616;2024-03-23T06:47:34;11.97;;;8.17;;
27744;SDS011;61387;48.112;8.616;2024-03-23T06:50:00;12.63;;;8.27;;
27744;SDS011;61387;48.112;8.616;2024-03-23T06:52:27;14.53;;;9.03;;
27744;SDS011;61387;48.112;8.616;2024-03-23T06:54:53;12.70;;;8.87;;
27744;SDS011;61387;48.112;8.616;2024-03-23T06:57:19;11.50;;;7.77;;
27744;SDS011;61387;48.112;8.616;2024-03-23T06:59:45;11.60;;;6.50;;
27744;SDS011;61387;48.112;8.616;2024-03-23T07:02:11;9.17;;;5.47;;
27744;SDS011;61387;48.112;8.616;2024-03-23T07:04:36;7.03;;;4.00;;
27744;SDS011;61387;48.112;8.616;2024-03-23T07:07:04;5.93;;;2.73;;
27744;SDS011;61387;48.112;8.616;2024-03-23T07:09:30;3.10;;;1.90;;
27744;SDS011;61387;48.112;8.616;2024-03-23T07:11:58;4.07;;;1.57;;
27744;SDS011;61387;48.112;8.616;2024-03-23T07:14:24;3.87;;;1.83;;
27744;SDS011;61387;48.112;8.616;2024-03-23T07:16:50;3.23;;;1.80;;
27744;SDS011;61387;48.112;8.616;2024-03-23T07:19:16;2.20;;;1.47;;
27744;SDS011;61387;48.112;8.616;2024-03-23T07:21:43;2.20;;;1.30;;
27744;SDS011;61387;48.112;8.616;2024-03-23T07:24:14;1.83;;;1.00;;
27744;SDS011;61387;48.112;8.616;2024-03-23T07:26:40;1.60;;;0.87;;
27744;SDS011;61387;48.112;8.616;2024-03-23T07:29:06;1.83;;;1.10;;
27744;SDS011;61387;48.112;8.616;2024-03-23T07:31:32;0.97;;;0.60;;
27744;SDS011;61387;48.112;8.616;2024-03-23T07:33:58;1.17;;;0.77;;
27744;SDS011;61387;48.112;8.616;2024-03-23T07:36:24;0.90;;;0.70;;
27744;SDS011;61387;48.112;8.616;2024-03-23T07:38:50;1.00;;;0.47;;
27744;SDS011;61387;48.112;8.616;2024-03-23T07:41:18;0.77;;;0.30;;
27744;SDS011;61387;48.112;8.616;2024-03-23T07:43:47;1.67;;;0.50;;
27744;SDS011;61387;48.112;8.616;2024-03-23T07:46:14;0.63;;;0.30;;
27744;SDS011;61387;48.112;8.616;2024-03-23T07:48:40;0.40;;;0.30;;
27744;SDS011;61387;48.112;8.616;2024-03-23T07:51:11;0.57;;;0.57;;
27744;SDS011;61387;48.112;8.616;2024-03-23T07:53:45;0.37;;;0.23;;
27744;SDS011;61387;48.112;8.616;2024-03-23T07:56:17;0.80;;;0.30;;
27744;SDS011;61387;48.112;8.616;2024-03-23T07:58:44;0.50;;;0.37;;
27744;SDS011;61387;48.112;8.616;2024-03-23T08:01:16;0.60;;;0.30;;
27744;SDS011;61387;48.112;8.616;2024-03-23T08:03:45;1.07;;;0.27;;
27744;SDS011;61387;48.112;8.616;2024-03-23T08:08:40;0.90;;;0.50;;
27744;SDS011;61387;48.112;8.616;2024-03-23T08:11:07;1.23;;;0.30;;
27744;SDS011;61387;48.112;8.616;2024-03-23T08:13:33;0.70;;;0.40;;
27744;SDS011;61387;48.112;8.616;2024-03-23T08:16:00;0.27;;;0.13;;
27744;SDS011;61387;48.112;8.616;2024-03-23T08:18:26;1.60;;;0.67;;
27744;SDS011;61387;48.112;8.616;2024-03-23T08:20:56;0.53;;;0.40;;
27744;SDS011;61387;48.112;8.616;2024-03-23T08:23:23;1.63;;;0.80;;
27744;SDS011;61387;48.112;8.616;2024-03-23T08:25:52;0.83;;;0.43;;
27744;SDS011;61387;48.112;8.616;2024-03-23T08:28:22;0.50;;;0.50;;
27744;SDS011;61387;48.112;8.616;2024-03-23T08:30:48;0.93;;;0.60;;
27744;SDS011;61387;48.112;8.616;2024-03-23T08:33:15;1.10;;;0.60;;
27744;SDS011;61387;48.112;8.616;2024-03-23T08:35:41;1.37;;;0.73;;
27744;SDS011;61387;48.112;8.616;2024-03-23T08:38:10;1.40;;;0.53;;
27744;SDS011;61387;48.112;8.616;2024-03-23T08:40:35;0.57;;;0.57;;
27744;SDS011;61387;48.112;8.616;2024-03-23T08:43:01;1.80;;;0.80;;
27744;SDS011;61387;48.112;8.616;2024-03-23T08:45:27;3.53;;;1.07;;
27744;SDS011;61387;48.112;8.616;2024-03-23T08:47:53;1.17;;;0.70;;
27744;SDS011;61387;48.112;8.616;2024-03-23T08:50:19;1.93;;;0.90;;
27744;SDS011;61387;48.112;8.616;2024-03-23T08:52:46;1.63;;;1.13;;
27744;SDS011;61387;48.112;8.616;2024-03-23T08:55:12;2.03;;;1.10;;
27744;SDS011;61387;48.112;8.616;2024-03-23T08:57:38;2.50;;;1.40;;
27744;SDS011;61387;48.112;8.616;2024-03-23T09:00:04;4.77;;;1.57;;
27744;SDS011;61387;48.112;8.616;2024-03-23T09:02:33;4.30;;;1.87;;
27744;SDS011;61387;48.112;8.616;2024-03-23T09:05:04;3.30;;;1.83;;
27744;SDS011;61387;48.112;8.616;2024-03-23T09:07:31;5.13;;;2.00;;
27744;SDS011;61387;48.112;8.616;2024-03-23T09:09:56;4.67;;;1.90;;
27744;SDS011;61387;48.112;8.616;2024-03-23T09:12:22;5.28;;;2.20;;
27744;SDS011;61387;48.112;8.616;2024-03-23T09:14:47;3.83;;;2.03;;
27744;SDS011;61387;48.112;8.616;2024-03-23T09:17:14;7.37;;;2.57;;
27744;SDS011;61387;48.112;8.616;2024-03-23T09:19:40;6.27;;;2.37;;
27744;SDS011;61387;48.112;8.616;2024-03-23T09:22:06;5.53;;;2.17;;
27744;SDS011;61387;48.112;8.616;2024-03-23T09:24:32;5.20;;;2.20;;
27744;SDS011;61387;48.112;8.616;2024-03-23T09:26:58;6.70;;;2.63;;
27744;SDS011;61387;48.112;8.616;2024-03-23T09:29:24;4.27;;;2.07;;
27744;SDS011;61387;48.112;8.616;2024-03-23T09:31:49;6.57;;;2.57;;
27744;SDS011;61387;48.112;8.616;2024-03-23T09:34:15;5.43;;;2.40;;
27744;SDS011;61387;48.112;8.616;2024-03-23T09:36:41;7.20;;;2.77;;
27744;SDS011;61387;48.112;8.616;2024-03-23T09:39:07;6.57;;;2.70;;
27744;SDS011;61387;48.112;8.616;2024-03-23T09:41:34;11.87;;;3.57;;
27744;SDS011;61387;48.112;8.616;2024-03-23T09:44:00;7.80;;;3.10;;
27744;SDS011;61387;48.112;8.616;2024-03-23T09:46:27;8.50;;;2.80;;
27744;SDS011;61387;48.112;8.616;2024-03-23T09:48:59;7.63;;;2.93;;
27744;SDS011;61387;48.112;8.616;2024-03-23T09:51:25;10.30;;;3.20;;
27744;SDS011;61387;48.112;8.616;2024-03-23T09:53:51;9.53;;;3.27;;
27744;SDS011;61387;48.112;8.616;2024-03-23T09:56:17;6.50;;;2.80;;
27744;SDS011;61387;48.112;8.616;2024-03-23T09:58:43;10.40;;;2.90;;
27744;SDS011;61387;48.112;8.616;2024-03-23T10:01:09;8.73;;;3.23;;
27744;SDS011;61387;48.112;8.616;2024-03-23T10:03:44;10.37;;;3.10;;
27744;SDS011;61387;48.112;8.616;2024-03-23T10:06:11;10.30;;;3.80;;
27744;SDS011;61387;48.112;8.616;2024-03-23T10:08:36;9.97;;;3.63;;
27744;SDS011;61387;48.112;8.616;2024-03-23T10:11:12;8.97;;;3.53;;
27744;SDS011;61387;48.112;8.616;2024-03-23T10:13:38;7.57;;;3.10;;
27744;SDS011;61387;48.112;8.616;2024-03-23T10:16:07;8.13;;;3.20;;
27744;SDS011;61387;48.112;8.616;2024-03-23T10:18:36;9.20;;;3.00;;
27744;SDS011;61387;48.112;8.616;2024-03-23T10:23:32;8.03;;;3.67;;
27744;SDS011;61387;48.112;8.616;2024-03-23T10:31:18;8.53;;;3.17;;
27744;SDS011;61387;48.112;8.616;2024-03-23T10:33:45;8.10;;;3.00;;
27744;SDS011;61387;48.112;8.616;2024-03-23T10:36:12;8.07;;;2.87;;
27744;SDS011;61387;48.112;8.616;2024-03-23T10:38:40;7.30;;;2.23;;
27744;SDS011;61387;48.112;8.616;2024-03-23T10:41:07;11.37;;;2.80;;
27744;SDS011;61387;48.112;8.616;2024-03-23T10:43:34;9.00;;;2.60;;
27744;SDS011;61387;48.112;8.616;2024-03-23T10:46:02;6.63;;;2.53;;
27744;SDS011;61387;48.112;8.616;2024-03-23T10:48:28;6.67;;;3.03;;
27744;SDS011;61387;48.112;8.616;2024-03-23T10:50:54;6.80;;;2.70;;
27744;SDS011;61387;48.112;8.616;2024-03-23T10:53:21;6.03;;;2.43;;
27744;SDS011;61387;48.112;8.616;2024-03-23T10:55:50;9.00;;;2.60;;
27744;SDS011;61387;48.112;8.616;2024-03-23T10:58:17;6.10;;;2.50;;
27744;SDS011;61387;48.112;8.616;2024-03-23T11:00:46;8.63;;;3.23;;
27744;SDS011;61387;48.112;8.616;2024-03-23T11:03:55;8.57;;;2.43;;
27744;SDS011;61387;48.112;8.616;2024-03-23T11:06:03;6.60;;;2.80;;
27744;SDS011;61387;48.112;8.616;2024-03-23T11:08:39;8.03;;;2.60;;
27744;SDS011;61387;48.112;8.616;2024-03-23T11:13:49;4.50;;;2.23;;
27744;SDS011;61387;48.112;8.616;2024-03-23T11:16:22;4.27;;;2.17;;
27744;SDS011;61387;48.112;8.616;2024-03-23T11:18:49;5.47;;;2.70;;
27744;SDS011;61387;48.112;8.616;2024-03-23T11:24:17;8.07;;;2.93;;
27744;SDS011;61387;48.112;8.616;2024-03-23T11:26:43;8.13;;;2.60;;
27744;SDS011;61387;48.112;8.616;2024-03-23T11:29:09;10.00;;;3.05;;
27744;SDS011;61387;48.112;8.616;2024-03-23T11:31:44;6.17;;;2.60;;
27744;SDS011;61387;48.112;8.616;2024-03-23T11:34:11;8.33;;;3.23;;
27744;SDS011;61387;48.112;8.616;2024-03-23T11:36:37;8.23;;;3.42;;
27744;SDS011;61387;48.112;8.616;2024-03-23T11:39:18;9.97;;;3.20;;
27744;SDS011;61387;48.112;8.616;2024-03-23T11:41:48;4.50;;;1.70;;
27744;SDS011;61387;48.112;8.616;2024-03-23T11:44:18;3.37;;;1.33;;
27744;SDS011;61387;48.112;8.616;2024-03-23T11:46:45;3.73;;;1.50;;
27744;SDS011;61387;48.112;8.616;2024-03-23T11:51:52;4.63;;;1.80;;
27744;SDS011;61387;48.112;8.616;2024-03-23T11:54:22;8.40;;;2.57;;
27744;SDS011;61387;48.112;8.616;2024-03-23T11:56:56;5.07;;;1.97;;
27744;SDS011;61387;48.112;8.616;2024-03-23T11:59:35;5.97;;;2.50;;
27744;SDS011;61387;48.112;8.616;2024-03-23T12:02:09;8.27;;;2.63;;
27744;SDS011;61387;48.112;8.616;2024-03-23T12:04:36;4.30;;;2.27;;
27744;SDS011;61387;48.112;8.616;2024-03-23T12:07:15;5.13;;;2.73;;
27744;SDS011;61387;48.112;8.616;2024-03-23T12:09:46;7.73;;;2.80;;
27744;SDS011;61387;48.112;8.616;2024-03-23T12:12:16;5.77;;;2.47;;
27744;SDS011;61387;48.112;8.616;2024-03-23T12:14:45;9.80;;;2.50;;
27744;SDS011;61387;48.112;8.616;2024-03-23T12:17:28;5.33;;;2.20;;
27744;SDS011;61387;48.112;8.616;2024-03-23T12:19:54;8.97;;;3.17;;
27744;SDS011;61387;48.112;8.616;2024-03-23T12:22:26;7.10;;;2.83;;
27744;SDS011;61387;48.112;8.616;2024-03-23T12:24:52;7.17;;;2.57;;
27744;SDS011;61387;48.112;8.616;2024-03-23T12:27:18;6.00;;;1.80;;
27744;SDS011;61387;48.112;8.616;2024-03-23T12:29:44;9.73;;;1.80;;
27744;SDS011;61387;48.112;8.616;2024-03-23T12:32:12;5.13;;;2.00;;
27744;SDS011;61387;48.112;8.616;2024-03-23T12:34:38;7.60;;;2.07;;
27744;SDS011;61387;48.112;8.616;2024-03-23T12:37:04;5.07;;;2.10;;
27744;SDS011;61387;48.112;8.616;2024-03-23T12:39:34;4.27;;;2.00;;
27744;SDS011;61387;48.112;8.616;2024-03-23T12:42:00;3.77;;;1.90;;
27744;SDS011;61387;48.112;8.616;2024-03-23T12:44:27;4.83;;;1.90;;
27744;SDS011;61387;48.112;8.616;2024-03-23T12:46:53;8.87;;;2.47;;
27744;SDS011;61387;48.112;8.616;2024-03-23T12:49:25;5.83;;;2.40;;
27744;SDS011;61387;48.112;8.616;2024-03-23T12:51:54;5.50;;;2.00;;
27744;SDS011;61387;48.112;8.616;2024-03-23T12:54:21;5.10;;;2.13;;
27744;SDS011;61387;48.112;8.616;2024-03-23T12:56:47;8.43;;;2.37;;
27744;SDS011;61387;48.112;8.616;2024-03-23T12:59:19;10.47;;;3.80;;
27744;SDS011;61387;48.112;8.616;2024-03-23T13:02:44;8.40;;;1.90;;
27744;SDS011;61387;48.112;8.616;2024-03-23T13:05:10;4.43;;;1.73;;
27744;SDS011;61387;48.112;8.616;2024-03-23T13:07:36;6.87;;;1.90;;
27744;SDS011;61387;48.112;8.616;2024-03-23T13:10:02;12.17;;;2.63;;
27744;SDS011;61387;48.112;8.616;2024-03-23T13:12:28;4.20;;;1.60;;
27744;SDS011;61387;48.112;8.616;2024-03-23T13:14:55;3.50;;;1.40;;
27744;SDS011;61387;48.112;8.616;2024-03-23T13:17:21;2.97;;;1.30;;
27744;SDS011;61387;48.112;8.616;2024-03-23T13:19:46;4.57;;;1.60;;
27744;SDS011;61387;48.112;8.616;2024-03-23T13:22:12;4.97;;;1.60;;
27744;SDS011;61387;48.112;8.616;2024-03-23T13:24:38;4.57;;;1.63;;
27744;SDS011;61387;48.112;8.616;2024-03-23T13:27:04;3.73;;;1.30;;
27744;SDS011;61387;48.112;8.616;2024-03-23T13:29:32;5.13;;;2.00;;
27744;SDS011;61387;48.112;8.616;2024-03-23T13:31:59;5.40;;;1.30;;
27744;SDS011;61387;48.112;8.616;2024-03-23T13:34:25;5.33;;;1.40;;
27744;SDS011;61387;48.112;8.616;2024-03-23T13:36:50;3.27;;;1.30;;
27744;SDS011;61387;48.112;8.616;2024-03-23T13:39:16;4.47;;;1.20;;
27744;SDS011;61387;48.112;8.616;2024-03-23T13:41:43;5.63;;;1.10;;
27744;SDS011;61387;48.112;8.616;2024-03-23T13:44:10;2.50;;;1.27;;
27744;SDS011;61387;48.112;8.616;2024-03-23T13:46:37;4.07;;;1.37;;
27744;SDS011;61387;48.112;8.616;2024-03-23T13:49:03;8.83;;;1.20;;
27744;SDS011;61387;48.112;8.616;2024-03-23T13:51:29;1.67;;;0.67;;
27744;SDS011;61387;48.112;8.616;2024-03-23T13:53:56;5.03;;;1.50;;
27744;SDS011;61387;48.112;8.616;2024-03-23T13:56:25;4.40;;;1.70;;
27744;SDS011;61387;48.112;8.616;2024-03-23T13:58:51;3.43;;;1.33;;
27744;SDS011;61387;48.112;8.616;2024-03-23T14:01:17;9.50;;;3.00;;
27744;SDS011;61387;48.112;8.616;2024-03-23T14:03:43;8.67;;;3.90;;
27744;SDS011;61387;48.112;8.616;2024-03-23T14:06:10;8.50;;;3.13;;
27744;SDS011;61387;48.112;8.616;2024-03-23T14:08:36;3.20;;;1.70;;
27744;SDS011;61387;48.112;8.616;2024-03-23T14:11:07;15.90;;;5.80;;
27744;SDS011;61387;48.112;8.616;2024-03-23T14:13:34;3.77;;;1.93;;
27744;SDS011;61387;48.112;8.616;2024-03-23T14:16:00;5.27;;;1.60;;
27744;SDS011;61387;48.112;8.616;2024-03-23T14:18:26;7.53;;;3.13;;
27744;SDS011;61387;48.112;8.616;2024-03-23T14:20:55;3.80;;;1.20;;
27744;SDS011;61387;48.112;8.616;2024-03-23T14:23:23;3.17;;;1.43;;
27744;SDS011;61387;48.112;8.616;2024-03-23T14:25:52;4.57;;;2.07;;
27744;SDS011;61387;48.112;8.616;2024-03-23T14:28:22;7.03;;;2.27;;
27744;SDS011;61387;48.112;8.616;2024-03-23T14:30:50;7.53;;;2.60;;
27744;SDS011;61387;48.112;8.616;2024-03-23T14:33:17;6.40;;;2.40;;
27744;SDS011;61387;48.112;8.616;2024-03-23T14:35:43;6.47;;;2.30;;
27744;SDS011;61387;48.112;8.616;2024-03-23T14:38:09;7.60;;;2.20;;
27744;SDS011;61387;48.112;8.616;2024-03-23T14:40:35;12.17;;;3.83;;
27744;SDS011;61387;48.112;8.616;2024-03-23T14:43:01;12.53;;;2.70;;
27744;SDS011;61387;48.112;8.616;2024-03-23T14:45:27;10.07;;;1.90;;
27744;SDS011;61387;48.112;8.616;2024-03-23T14:47:53;6.17;;;1.67;;
27744;SDS011;61387;48.112;8.616;2024-03-23T14:50:19;8.97;;;2.17;;
27744;SDS011;61387;48.112;8.616;2024-03-23T14:52:46;5.37;;;1.57;;
27744;SDS011;61387;48.112;8.616;2024-03-23T14:55:12;6.07;;;1.60;;
27744;SDS011;61387;48.112;8.616;2024-03-23T14:57:39;6.83;;;2.10;;
27744;SDS011;61387;48.112;8.616;2024-03-23T15:00:08;6.57;;;2.03;;
27744;SDS011;61387;48.112;8.616;2024-03-23T15:02:39;8.00;;;2.47;;
27744;SDS011;61387;48.112;8.616;2024-03-23T15:05:05;6.90;;;2.10;;
27744;SDS011;61387;48.112;8.616;2024-03-23T15:07:35;5.77;;;1.70;;
27744;SDS011;61387;48.112;8.616;2024-03-23T15:10:03;8.50;;;2.50;;
27744;SDS011;61387;48.112;8.616;2024-03-23T15:12:29;5.07;;;1.03;;
27744;SDS011;61387;48.112;8.616;2024-03-23T15:14:57;12.00;;;2.90;;
27744;SDS011;61387;48.112;8.616;2024-03-23T15:17:23;8.53;;;1.73;;
27744;SDS011;61387;48.112;8.616;2024-03-23T15:19:49;14.83;;;4.77;;
27744;SDS011;61387;48.112;8.616;2024-03-23T15:22:15;7.57;;;3.37;;
27744;SDS011;61387;48.112;8.616;2024-03-23T15:24:41;9.97;;;2.13;;
27744;SDS011;61387;48.112;8.616;2024-03-23T15:27:07;8.23;;;2.30;;
27744;SDS011;61387;48.112;8.616;2024-03-23T15:29:34;13.93;;;4.60;;
27744;SDS011;61387;48.112;8.616;2024-03-23T15:32:01;9.33;;;2.83;;
27744;SDS011;61387;48.112;8.616;2024-03-23T15:34:28;6.97;;;2.57;;
27744;SDS011;61387;48.112;8.616;2024-03-23T15:36:54;7.83;;;3.03;;
27744;SDS011;61387;48.112;8.616;2024-03-23T15:39:20;10.53;;;3.00;;
27744;SDS011;61387;48.112;8.616;2024-03-23T15:41:47;12.53;;;3.20;;
27744;SDS011;61387;48.112;8.616;2024-03-23T15:44:13;17.50;;;7.97;;
27744;SDS011;61387;48.112;8.616;2024-03-23T15:46:39;14.50;;;4.10;;
27744;SDS011;61387;48.112;8.616;2024-03-23T15:49:05;13.13;;;4.00;;
27744;SDS011;61387;48.112;8.616;2024-03-23T15:51:31;9.23;;;3.03;;
27744;SDS011;61387;48.112;8.616;2024-03-23T15:54:02;7.67;;;3.00;;
27744;SDS011;61387;48.112;8.616;2024-03-23T15:56:31;13.23;;;4.10;;